Time;durP1;ratioP1;P1;durP2;ratioP2;P2;SDS_P1;SDS_P2;PMS_P1;PMS_P2;Temp;Humidity;BMP_temperature;BMP_pressure;BME280_temperature;BME280_humidity;BME280_pressure;Samples;Min_cycle;Max_cycle;Signal;HPM_P1;HPM_P2
2024/01/11 00:00:31;;;;;;;;;;;;;;;;;;5094232;28;19920;-58
2024/01/11 00:02:57;;;;;;;;;;;;;;;;;;5090896;28;19920;-60
2024/01/11 00:05:23;;;;;;;;;;;;;;;;;;5093653;28;19912;-58
2024/01/11 00:07:49;;;;;;;;;;;;;;;;;;5094935;28;19999;-58
2024/01/11 00:10:15;;;;;;;;;;;;;;;;;;5094348;28;19958;-58
2024/01/11 00:12:41;;;;;;;;;;;;;;;;;;5093033;28;19974;-58
2024/01/11 00:15:07;;;;;;;;;;;;;;;;;;5094682;28;19995;-58
2024/01/11 00:17:33;;;;;;;;;;;;;;;;;;5094067;28;19922;-58
2024/01/11 00:19:58;;;;;;;;;;;;;;;;;;5093521;28;19912;-58
2024/01/11 00:22:24;;;;;;;;;;;;;;;;;;5091722;28;19919;-57
2024/01/11 00:24:50;;;;;;;;;;;;;;;;;;5086203;28;19911;-59
2024/01/11 00:27:16;;;;;;;;;;;;;;;;;;5088438;28;20041;-58
2024/01/11 00:29:42;;;;;;;;;;;;;;;;;;5092220;28;19924;-58
2024/01/11 00:32:08;;;;;;;;;;;;;;;;;;5080072;28;19935;-58
2024/01/11 00:34:35;;;;;;;;;;;;;;;;;;5093032;28;19948;-58
2024/01/11 00:37:01;;;;;;;;;;;;;;;;;;5093977;28;19916;-58
2024/01/11 00:39:29;;;;;;;;;;;;;;;;;;5093773;28;19916;-58
2024/01/11 00:41:54;;;;;;;;;;;;;;;;;;5088510;28;19912;-57
2024/01/11 00:44:20;;;;;;;;;;;;;;;;;;5074094;28;20331;-58
2024/01/11 00:46:46;;;;;;;;;;;;;;;;;;5089625;28;19951;-58
2024/01/11 00:49:12;;;;;;;;;;;;;;;;;;5093370;28;20363;-58
2024/01/11 00:51:38;;;;;;;;;;;;;;;;;;5093677;28;19953;-58
2024/01/11 00:54:04;;;;;;;;;;;;;;;;;;5089990;28;20371;-56
2024/01/11 00:56:30;;;;;;;;;;;;;;;;;;5092572;28;19958;-55
2024/01/11 00:58:56;;;;;;;;;;;;;;;;;;5093417;28;20279;-52
2024/01/11 01:01:22;;;;;;;;;;;;;;;;;;5091189;28;19959;-53
2024/01/11 01:03:47;;;;;;;;;;;;;;;;;;5078193;28;19919;-58
2024/01/11 01:06:13;;;;;;;;;;;;;;;;;;5080057;28;19963;-58
2024/01/11 01:08:39;;;;;;;;;;;;;;;;;;5093425;28;20019;-58
2024/01/11 01:11:05;;;;;;;;;;;;;;;;;;5080731;28;19913;-58
2024/01/11 01:13:31;;;;;;;;;;;;;;;;;;5073626;28;19917;-58
2024/01/11 01:15:57;;;;;;;;;;;;;;;;;;5087562;28;19951;-59
2024/01/11 01:18:23;;;;;;;;;;;;;;;;;;5091869;28;19920;-65
2024/01/11 01:20:49;;;;;;;;;;;;;;;;;;5093183;28;19969;-58
2024/01/11 01:23:16;;;;;;;;;;;;;;;;;;5084767;28;19966;-58
2024/01/11 01:25:42;;;;;;;;;;;;;;;;;;5084322;28;19916;-58
2024/01/11 01:28:08;;;;;;;;;;;;;;;;;;5092302;28;20595;-58
2024/01/11 01:30:34;;;;;;;;;;;;;;;;;;5091803;28;19916;-58
2024/01/11 01:33:00;;;;;;;;;;;;;;;;;;5084421;28;20281;-58
2024/01/11 01:35:25;;;;;;;;;;;;;;;;;;5077852;28;19908;-58
2024/01/11 01:37:51;;;;;;;;;;;;;;;;;;5092325;28;19938;-58
2024/01/11 01:40:17;;;;;;;;;;;;;;;;;;5092100;28;19995;-58
2024/01/11 01:42:46;;;;;;;;;;;;;;;;;;5092568;28;20375;-58
2024/01/11 01:45:12;;;;;;;;;;;;;;;;;;5088027;28;20387;-58
2024/01/11 01:47:38;;;;;;;;;;;;;;;;;;5089216;28;19959;-57
2024/01/11 01:50:04;;;;;;;;;;;;;;;;;;5091950;28;19912;-56
2024/01/11 01:52:30;;;;;;;;;;;;;;;;;;5091037;28;19912;-58
2024/01/11 01:54:56;;;;;;;;;;;;;;;;;;5091760;28;20004;-56
2024/01/11 01:57:22;;;;;;;;;;;;;;;;;;5086938;28;19924;-58
2024/01/11 01:59:48;;;;;;;;;;;;;;;;;;5082248;28;19908;-59
2024/01/11 02:02:13;;;;;;;;;;;;;;;;;;5092498;28;19958;-54
2024/01/11 02:04:39;;;;;;;;;;;;;;;;;;5082241;28;19912;-54
2024/01/11 02:07:05;;;;;;;;;;;;;;;;;;5092262;28;20394;-54
2024/01/11 02:09:31;;;;;;;;;;;;;;;;;;5085185;28;19939;-54
2024/01/11 02:11:57;;;;;;;;;;;;;;;;;;5086526;28;19994;-51
2024/01/11 02:14:23;;;;;;;;;;;;;;;;;;5074533;28;20435;-53
2024/01/11 02:16:49;;;;;;;;;;;;;;;;;;5084199;28;19918;-54
2024/01/11 02:19:15;;;;;;;;;;;;;;;;;;5078643;28;19947;-55
2024/01/11 02:21:41;;;;;;;;;;;;;;;;;;5092297;28;19959;-51
2024/01/11 02:24:07;;;;;;;;;;;;;;;;;;5092611;28;20384;-53
2024/01/11 02:26:32;;;;;;;;;;;;;;;;;;5092387;28;20057;-52
2024/01/11 02:28:58;;;;;;;;;;;;;;;;;;5092509;28;20398;-53
2024/01/11 02:31:24;;;;;;;;;;;;;;;;;;5090556;28;19962;-54
2024/01/11 02:33:50;;;;;;;;;;;;;;;;;;5090350;28;19950;-56
2024/01/11 02:36:16;;;;;;;;;;;;;;;;;;5089827;28;20333;-54
2024/01/11 02:38:42;;;;;;;;;;;;;;;;;;5091855;28;19961;-53
2024/01/11 02:41:08;;;;;;;;;;;;;;;;;;5091474;28;20011;-53
2024/01/11 02:43:35;;;;;;;;;;;;;;;;;;5088669;28;20065;-53
2024/01/11 02:46:01;;;;;;;;;;;;;;;;;;5091826;28;19943;-54
2024/01/11 02:48:27;;;;;;;;;;;;;;;;;;5090674;28;19947;-54
2024/01/11 02:50:53;;;;;;;;;;;;;;;;;;5091109;28;20416;-54
2024/01/11 02:53:19;;;;;;;;;;;;;;;;;;5076211;28;19957;-56
2024/01/11 02:55:45;;;;;;;;;;;;;;;;;;5093721;28;19938;-54
2024/01/11 02:58:11;;;;;;;;;;;;;;;;;;5091559;28;19912;-53
2024/01/11 03:00:37;;;;;;;;;;;;;;;;;;5094577;28;19918;-56
2024/01/11 03:03:03;;;;;;;;;;;;;;;;;;5092051;28;20372;-53
2024/01/11 03:05:28;;;;;;;;;;;;;;;;;;5095969;28;20019;-55
2024/01/11 03:07:54;;;;;;;;;;;;;;;;;;5095159;28;20269;-50
2024/01/11 03:10:20;;;;;;;;;;;;;;;;;;5087753;28;19912;-54
2024/01/11 03:12:49;;;;;;;;;;;;;;;;;;5076028;28;20004;-53
2024/01/11 03:15:15;;;;;;;;;;;;;;;;;;5079852;28;19916;-53
2024/01/11 03:17:41;;;;;;;;;;;;;;;;;;5093240;28;19956;-53
2024/01/11 03:20:07;;;;;;;;;;;;;;;;;;5095557;28;19955;-54
2024/01/11 03:22:33;;;;;;;;;;;;;;;;;;5095917;28;19912;-54
2024/01/11 03:24:59;;;;;;;;;;;;;;;;;;5095324;28;19965;-53
2024/01/11 03:27:24;;;;;;;;;;;;;;;;;;5084465;28;19916;-53
2024/01/11 03:29:50;;;;;;;;;;;;;;;;;;5092352;28;19920;-53
2024/01/11 03:32:16;;;;;;;;;;;;;;;;;;5090122;28;20007;-53
2024/01/11 03:34:42;;;;;;;;;;;;;;;;;;5084973;28;19916;-53
2024/01/11 03:37:08;;;;;;;;;;;;;;;;;;5091636;28;19958;-53
2024/01/11 03:39:34;;;;;;;;;;;;;;;;;;5094277;28;19916;-55
2024/01/11 03:42:00;;;;;;;;;;;;;;;;;;5093808;28;19912;-53
2024/01/11 03:44:26;;;;;;;;;;;;;;;;;;5095119;28;19916;-54
2024/01/11 03:46:52;;;;;;;;;;;;;;;;;;5093093;28;20671;-52
2024/01/11 03:49:18;;;;;;;;;;;;;;;;;;5093951;28;19915;-52
2024/01/11 03:51:44;;;;;;;;;;;;;;;;;;5078031;28;19986;-54
2024/01/11 03:54:10;;;;;;;;;;;;;;;;;;5095754;28;19919;-55
2024/01/11 03:56:36;;;;;;;;;;;;;;;;;;5093388;28;19998;-54
2024/01/11 03:59:02;;;;;;;;;;;;;;;;;;5089901;28;19916;-54
2024/01/11 04:01:28;;;;;;;;;;;;;;;;;;5079524;28;20008;-53
2024/01/11 04:03:54;;;;;;;;;;;;;;;;;;5078571;28;19909;-53
2024/01/11 04:06:21;;;;;;;;;;;;;;;;;;5076356;28;19959;-52
2024/01/11 04:08:47;;;;;;;;;;;;;;;;;;5088517;28;19995;-54
2024/01/11 04:11:12;;;;;;;;;;;;;;;;;;5094159;28;19920;-54
2024/01/11 04:13:39;;;;;;;;;;;;;;;;;;5095120;28;19909;-55
2024/01/11 04:16:05;;;;;;;;;;;;;;;;;;5091946;28;19912;-53
2024/01/11 04:18:31;;;;;;;;;;;;;;;;;;5085569;28;19919;-54
2024/01/11 04:20:57;;;;;;;;;;;;;;;;;;5074518;28;19916;-55
2024/01/11 04:23:23;;;;;;;;;;;;;;;;;;5084740;28;20007;-55
2024/01/11 04:25:50;;;;;;;;;;;;;;;;;;5086125;28;19912;-58
2024/01/11 04:28:16;;;;;;;;;;;;;;;;;;5088842;28;19927;-58
2024/01/11 04:30:42;;;;;;;;;;;;;;;;;;5086533;28;20349;-58
2024/01/11 04:33:08;;;;;;;;;;;;;;;;;;5090726;28;19913;-58
2024/01/11 04:35:34;;;;;;;;;;;;;;;;;;5093838;28;19908;-58
2024/01/11 04:38:00;;;;;;;;;;;;;;;;;;5094056;28;20003;-58
2024/01/11 04:40:26;;;;;;;;;;;;;;;;;;5092262;28;19916;-58
2024/01/11 04:42:52;;;;;;;;;;;;;;;;;;5083983;28;19917;-58
2024/01/11 04:45:18;;;;;;;;;;;;;;;;;;5093774;28;19912;-58
2024/01/11 04:47:44;;;;;;;;;;;;;;;;;;5092684;28;20010;-56
2024/01/11 04:50:10;;;;;;;;;;;;;;;;;;5079469;28;19966;-58
2024/01/11 04:52:36;;;;;;;;;;;;;;;;;;5094698;28;19908;-58
2024/01/11 04:55:02;;;;;;;;;;;;;;;;;;5092506;28;19923;-58
2024/01/11 04:57:27;;;;;;;;;;;;;;;;;;5092789;28;20424;-57
2024/01/11 04:59:53;;;;;;;;;;;;;;;;;;5088756;28;20446;-57
2024/01/11 05:02:19;;;;;;;;;;;;;;;;;;5087506;28;19916;-56
2024/01/11 05:04:45;;;;;;;;;;;;;;;;;;5088470;28;19912;-58
2024/01/11 05:07:11;;;;;;;;;;;;;;;;;;5091526;28;20014;-58
2024/01/11 05:09:37;;;;;;;;;;;;;;;;;;5092922;28;19912;-58
2024/01/11 05:12:03;;;;;;;;;;;;;;;;;;5092706;28;19916;-58
2024/01/11 05:14:30;;;;;;;;;;;;;;;;;;5087627;28;19923;-57
2024/01/11 05:16:56;;;;;;;;;;;;;;;;;;5088952;28;19912;-57
2024/01/11 05:19:22;;;;;;;;;;;;;;;;;;5083998;28;20334;-58
2024/01/11 05:21:48;;;;;;;;;;;;;;;;;;5093412;28;19940;-58
2024/01/11 05:24:14;;;;;;;;;;;;;;;;;;5091383;28;20003;-57
2024/01/11 05:26:39;;;;;;;;;;;;;;;;;;5092668;28;19916;-57
2024/01/11 05:29:05;;;;;;;;;;;;;;;;;;5090541;28;19927;-57
2024/01/11 05:31:31;;;;;;;;;;;;;;;;;;5091805;28;20283;-57
2024/01/11 05:33:57;;;;;;;;;;;;;;;;;;5093545;28;19909;-58
2024/01/11 05:36:23;;;;;;;;;;;;;;;;;;5093366;28;19994;-57
2024/01/11 05:38:49;;;;;;;;;;;;;;;;;;5087883;28;19955;-58
2024/01/11 05:41:15;;;;;;;;;;;;;;;;;;5079130;28;20005;-57
2024/01/11 05:43:42;;;;;;;;;;;;;;;;;;5083944;28;19976;-57
2024/01/11 05:46:08;;;;;;;;;;;;;;;;;;5089962;28;19951;-59
2024/01/11 05:48:34;;;;;;;;;;;;;;;;;;5084745;28;19956;-58
2024/01/11 05:51:00;;;;;;;;;;;;;;;;;;5086696;28;20367;-58
2024/01/11 05:53:27;;;;;;;;;;;;;;;;;;5088828;28;19912;-55
2024/01/11 05:55:53;;;;;;;;;;;;;;;;;;5088546;28;19920;-57
2024/01/11 05:58:19;;;;;;;;;;;;;;;;;;5092801;28;19962;-58
2024/01/11 06:00:45;;;;;;;;;;;;;;;;;;5086944;28;19920;-58
2024/01/11 06:03:11;;;;;;;;;;;;;;;;;;5090954;28;19913;-58
2024/01/11 06:05:37;;;;;;;;;;;;;;;;;;5092357;28;20399;-58
2024/01/11 06:08:03;;;;;;;;;;;;;;;;;;5088258;28;20319;-58
2024/01/11 06:10:30;;;;;;;;;;;;;;;;;;5088773;28;19958;-57
2024/01/11 06:12:56;;;;;;;;;;;;;;;;;;5089700;28;19931;-58
2024/01/11 06:15:22;;;;;;;;;;;;;;;;;;5084674;28;20342;-58
2024/01/11 06:17:48;;;;;;;;;;;;;;;;;;5089775;28;19954;-58
2024/01/11 06:20:14;;;;;;;;;;;;;;;;;;5090145;28;19912;-58
2024/01/11 06:22:40;;;;;;;;;;;;;;;;;;5084774;28;20379;-57
2024/01/11 06:25:06;;;;;;;;;;;;;;;;;;5074116;28;19970;-55
2024/01/11 06:27:32;;;;;;;;;;;;;;;;;;5088683;28;19920;-58
2024/01/11 06:29:58;;;;;;;;;;;;;;;;;;5091521;28;19941;-58
2024/01/11 06:32:24;;;;;;;;;;;;;;;;;;5082959;28;19958;-56
2024/01/11 06:34:51;;;;;;;;;;;;;;;;;;5091348;28;19951;-58
2024/01/11 06:37:17;;;;;;;;;;;;;;;;;;5091337;28;20034;-58
2024/01/11 06:39:43;;;;;;;;;;;;;;;;;;5084700;28;20048;-58
2024/01/11 06:42:09;;;;;;;;;;;;;;;;;;5090544;28;19920;-56
2024/01/11 06:44:34;;;;;;;;;;;;;;;;;;5090923;28;19913;-57
2024/01/11 06:47:03;;;;;;;;;;;;;;;;;;5091469;28;19951;-57
2024/01/11 06:49:29;;;;;;;;;;;;;;;;;;5083543;28;19982;-57
2024/01/11 06:51:55;;;;;;;;;;;;;;;;;;5080776;28;19958;-57
2024/01/11 06:54:21;;;;;;;;;;;;;;;;;;5084373;28;20015;-55
2024/01/11 06:56:46;;;;;;;;;;;;;;;;;;5083656;28;19924;-57
2024/01/11 06:59:12;;;;;;;;;;;;;;;;;;5083479;28;19964;-56
2024/01/11 07:01:38;;;;;;;;;;;;;;;;;;5086586;28;20032;-57
2024/01/11 07:04:04;;;;;;;;;;;;;;;;;;5087225;28;19916;-58
2024/01/11 07:06:30;;;;;;;;;;;;;;;;;;5089026;28;19974;-58
2024/01/11 07:08:56;;;;;;;;;;;;;;;;;;5084080;28;19995;-58
2024/01/11 07:11:22;;;;;;;;;;;;;;;;;;5086030;28;19920;-57
2024/01/11 07:13:48;;;;;;;;;;;;;;;;;;5092124;28;20389;-58
2024/01/11 07:16:14;;;;;;;;;;;;;;;;;;5080539;28;19916;-57
2024/01/11 07:18:40;;;;;;;;;;;;;;;;;;5091345;28;20363;-57
2024/01/11 07:21:06;;;;;;;;;;;;;;;;;;5089392;28;19913;-58
2024/01/11 07:23:32;;;;;;;;;;;;;;;;;;5091627;28;19968;-58
2024/01/11 07:25:58;;;;;;;;;;;;;;;;;;5091813;28;20404;-58
2024/01/11 07:28:25;;;;;;;;;;;;;;;;;;5091515;28;19971;-58
2024/01/11 07:30:51;;;;;;;;;;;;;;;;;;5089130;28;19920;-58
2024/01/11 07:33:17;;;;;;;;;;;;;;;;;;5089748;28;19958;-57
2024/01/11 07:35:43;;;;;;;;;;;;;;;;;;5089889;28;19959;-57
2024/01/11 07:38:09;;;;;;;;;;;;;;;;;;5090375;28;20286;-58
2024/01/11 07:40:35;;;;;;;;;;;;;;;;;;5086718;28;19947;-58
2024/01/11 07:43:01;;;;;;;;;;;;;;;;;;5093577;28;20006;-58
2024/01/11 07:45:27;;;;;;;;;;;;;;;;;;5091038;28;19912;-58
2024/01/11 07:47:53;;;;;;;;;;;;;;;;;;5094715;28;20006;-57
2024/01/11 07:50:19;;;;;;;;;;;;;;;;;;5088916;28;20027;-58
2024/01/11 07:52:45;;;;;;;;;;;;;;;;;;5090854;28;19913;-57
2024/01/11 07:55:12;;;;;;;;;;;;;;;;;;5090935;28;19920;-57
2024/01/11 07:57:38;;;;;;;;;;;;;;;;;;5094026;28;19923;-57
2024/01/11 08:00:06;;;;;;;;;;;;;;;;;;5093971;28;19920;-57
2024/01/11 08:02:32;;;;;;;;;;;;;;;;;;5093367;28;19927;-57
2024/01/11 08:04:59;;;;;;;;;;;;;;;;;;5089434;28;20002;-57
2024/01/11 08:07:25;;;;;;;;;;;;;;;;;;5085635;28;19916;-57
2024/01/11 08:09:51;;;;;;;;;;;;;;;;;;5093410;28;20006;-57
2024/01/11 08:12:17;;;;;;;;;;;;;;;;;;5094240;28;20368;-58
2024/01/11 08:14:43;;;;;;;;;;;;;;;;;;5093898;28;20010;-57
2024/01/11 08:17:09;;;;;;;;;;;;;;;;;;5094014;28;19957;-57
2024/01/11 08:19:35;;;;;;;;;;;;;;;;;;5091972;28;19962;-57
2024/01/11 08:22:01;;;;;;;;;;;;;;;;;;5083801;28;20627;-57
2024/01/11 08:24:27;;;;;;;;;;;;;;;;;;5094149;28;20008;-57
2024/01/11 08:26:52;;;;;;;;;;;;;;;;;;5094102;28;19916;-57
2024/01/11 08:29:22;;;;;;;;;;;;;;;;;;5093525;28;20390;-57
2024/01/11 08:31:48;;;;;;;;;;;;;;;;;;5093220;28;19912;-57
2024/01/11 08:34:14;;;;;;;;;;;;;;;;;;5090877;28;19953;-56
2024/01/11 08:36:39;;;;;;;;;;;;;;;;;;5082381;28;20273;-56
2024/01/11 08:39:05;;;;;;;;;;;;;;;;;;5093866;28;19953;-58
2024/01/11 08:41:31;;;;;;;;;;;;;;;;;;5093323;28;20014;-55
2024/01/11 08:43:57;;;;;;;;;;;;;;;;;;5089984;28;20376;-57
2024/01/11 08:46:23;;;;;;;;;;;;;;;;;;5093408;28;19912;-57
2024/01/11 08:48:49;;;;;;;;;;;;;;;;;;5092926;28;20247;-57
2024/01/11 08:51:15;;;;;;;;;;;;;;;;;;5092562;28;19916;-57
2024/01/11 08:53:41;;;;;;;;;;;;;;;;;;5093037;28;20006;-57
2024/01/11 08:56:07;;;;;;;;;;;;;;;;;;5093307;28;19958;-57
2024/01/11 08:58:33;;;;;;;;;;;;;;;;;;5093529;28;19908;-57
2024/01/11 09:00:59;;;;;;;;;;;;;;;;;;5093155;28;19999;-58
2024/01/11 09:03:25;;;;;;;;;;;;;;;;;;5082560;28;20387;-58
2024/01/11 09:05:51;;;;;;;;;;;;;;;;;;5093101;28;19916;-57
2024/01/11 09:08:17;;;;;;;;;;;;;;;;;;5093529;28;19958;-57
2024/01/11 09:10:43;;;;;;;;;;;;;;;;;;5092270;28;19920;-57
2024/01/11 09:13:09;;;;;;;;;;;;;;;;;;5078524;28;19955;-58
2024/01/11 09:15:35;;;;;;;;;;;;;;;;;;5093304;28;20409;-61
2024/01/11 09:18:00;;;;;;;;;;;;;;;;;;5092910;28;19914;-57
2024/01/11 09:20:26;;;;;;;;;;;;;;;;;;5092287;28;19916;-57
2024/01/11 09:22:52;;;;;;;;;;;;;;;;;;5093081;28;20022;-58
2024/01/11 09:25:18;;;;;;;;;;;;;;;;;;5091615;28;19908;-57
2024/01/11 09:27:44;;;;;;;;;;;;;;;;;;5091235;28;20014;-57
2024/01/11 09:30:10;;;;;;;;;;;;;;;;;;5092623;28;19947;-57
2024/01/11 09:32:36;;;;;;;;;;;;;;;;;;5092186;28;20320;-58
2024/01/11 09:35:02;;;;;;;;;;;;;;;;;;5090870;28;19996;-57
2024/01/11 09:37:28;;;;;;;;;;;;;;;;;;5092040;28;19912;-57
2024/01/11 09:39:54;;;;;;;;;;;;;;;;;;5092195;28;19963;-57
2024/01/11 09:42:20;;;;;;;;;;;;;;;;;;5091440;28;19962;-57
2024/01/11 09:44:46;;;;;;;;;;;;;;;;;;5092745;28;19908;-57
2024/01/11 09:47:12;;;;;;;;;;;;;;;;;;5092289;28;19951;-57
2024/01/11 09:49:38;;;;;;;;;;;;;;;;;;5091926;28;19957;-57
2024/01/11 09:52:03;;;;;;;;;;;;;;;;;;5092225;28;19934;-57
2024/01/11 09:54:29;;;;;;;;;;;;;;;;;;5091116;28;19915;-57
2024/01/11 09:56:55;;;;;;;;;;;;;;;;;;5091960;28;19995;-57
2024/01/11 09:59:24;;;;;;;;;;;;;;;;;;5091756;28;20004;-57
2024/01/11 10:01:50;;;;;;;;;;;;;;;;;;5092129;28;19915;-57
2024/01/11 10:04:16;;;;;;;;;;;;;;;;;;5081381;28;19912;-57
2024/01/11 10:06:42;;;;;;;;;;;;;;;;;;5091624;28;20429;-57
2024/01/11 10:09:08;;;;;;;;;;;;;;;;;;5091929;28;19912;-57
2024/01/11 10:11:34;;;;;;;;;;;;;;;;;;5091645;28;19916;-57
2024/01/11 10:14:01;;;;;;;;;;;;;;;;;;5092410;28;19926;-56
2024/01/11 10:16:27;;;;;;;;;;;;;;;;;;5091780;28;19908;-55
2024/01/11 10:18:52;;;;;;;;;;;;;;;;;;5092011;28;19916;-57
2024/01/11 10:21:18;;;;;;;;;;;;;;;;;;5089531;28;20320;-57
2024/01/11 10:23:44;;;;;;;;;;;;;;;;;;5091181;28;19912;-57
2024/01/11 10:26:10;;;;;;;;;;;;;;;;;;5091678;28;19930;-57
2024/01/11 10:28:37;;;;;;;;;;;;;;;;;;5091895;28;20003;-57
2024/01/11 10:31:03;;;;;;;;;;;;;;;;;;5091154;28;19915;-57
2024/01/11 10:33:29;;;;;;;;;;;;;;;;;;5091852;28;19908;-57
2024/01/11 10:35:55;;;;;;;;;;;;;;;;;;5090269;28;19955;-56
2024/01/11 10:38:21;;;;;;;;;;;;;;;;;;5091927;28;19953;-57
2024/01/11 10:40:47;;;;;;;;;;;;;;;;;;5089718;28;20420;-56
2024/01/11 10:43:15;;;;;;;;;;;;;;;;;;5091674;28;19916;-56
2024/01/11 10:45:41;;;;;;;;;;;;;;;;;;5087972;28;20334;-56
2024/01/11 10:48:07;;;;;;;;;;;;;;;;;;5091852;28;19916;-56
2024/01/11 10:50:33;;;;;;;;;;;;;;;;;;5091072;28;20053;-57
2024/01/11 10:52:59;;;;;;;;;;;;;;;;;;5091673;28;19908;-57
2024/01/11 10:55:25;;;;;;;;;;;;;;;;;;5091551;28;19938;-57
2024/01/11 10:57:50;;;;;;;;;;;;;;;;;;5091219;28;19969;-57
2024/01/11 11:00:18;;;;;;;;;;;;;;;;;;5090947;28;19908;-57
2024/01/11 11:02:44;;;;;;;;;;;;;;;;;;5084502;28;20275;-57
2024/01/11 11:05:10;;;;;;;;;;;;;;;;;;5089990;28;19914;-57
2024/01/11 11:07:36;;;;;;;;;;;;;;;;;;5090655;28;19923;-56
2024/01/11 11:10:04;;;;;;;;;;;;;;;;;;5090842;28;19959;-56
2024/01/11 11:12:30;;;;;;;;;;;;;;;;;;5078325;28;19986;-57
2024/01/11 11:14:56;;;;;;;;;;;;;;;;;;5078866;28;19920;-57
2024/01/11 11:17:22;;;;;;;;;;;;;;;;;;5094899;28;19922;-56
2024/01/11 11:19:48;;;;;;;;;;;;;;;;;;5095077;28;19913;-57
2024/01/11 11:22:15;;;;;;;;;;;;;;;;;;5094408;28;19912;-56
2024/01/11 11:24:41;;;;;;;;;;;;;;;;;;5094936;28;19916;-57
2024/01/11 11:27:08;;;;;;;;;;;;;;;;;;5095076;28;19923;-54
2024/01/11 11:29:33;;;;;;;;;;;;;;;;;;5094741;28;20007;-57
2024/01/11 11:32:00;;;;;;;;;;;;;;;;;;5090424;28;20395;-57
2024/01/11 11:34:25;;;;;;;;;;;;;;;;;;5095181;28;19916;-57
2024/01/11 11:36:54;;;;;;;;;;;;;;;;;;5093730;28;20440;-57
2024/01/11 11:39:21;;;;;;;;;;;;;;;;;;5094752;28;19911;-57
2024/01/11 11:41:47;;;;;;;;;;;;;;;;;;5094459;28;19916;-57
2024/01/11 11:44:15;;;;;;;;;;;;;;;;;;5094731;28;19912;-57
2024/01/11 11:46:41;;;;;;;;;;;;;;;;;;5094910;28;20015;-57
2024/01/11 11:49:09;;;;;;;;;;;;;;;;;;5094856;28;20397;-55
2024/01/11 11:51:35;;;;;;;;;;;;;;;;;;5087888;28;19916;-57
2024/01/11 11:54:01;;;;;;;;;;;;;;;;;;5094680;28;20306;-57
2024/01/11 11:56:27;;;;;;;;;;;;;;;;;;5094415;28;19909;-58
2024/01/11 11:58:54;;;;;;;;;;;;;;;;;;5094534;28;19940;-57
2024/01/11 12:01:20;;;;;;;;;;;;;;;;;;5094370;28;20330;-58
2024/01/11 12:03:49;;;;;;;;;;;;;;;;;;5084823;28;19962;-57
2024/01/11 12:06:16;;;;;;;;;;;;;;;;;;5086760;28;19916;-56
2024/01/11 12:08:42;;;;;;;;;;;;;;;;;;5092972;28;19916;-58
2024/01/11 12:11:08;;;;;;;;;;;;;;;;;;5092085;28;19977;-57
2024/01/11 12:13:33;;;;;;;;;;;;;;;;;;5085733;28;19956;-57
2024/01/11 12:15:59;;;;;;;;;;;;;;;;;;5094297;28;19908;-57
2024/01/11 12:18:25;;;;;;;;;;;;;;;;;;5094134;28;19912;-57
2024/01/11 12:20:53;;;;;;;;;;;;;;;;;;5093829;28;19914;-57
2024/01/11 12:23:18;;;;;;;;;;;;;;;;;;5093238;28;20321;-58
2024/01/11 12:25:44;;;;;;;;;;;;;;;;;;5093343;28;19922;-57
2024/01/11 12:28:10;;;;;;;;;;;;;;;;;;5091156;28;19959;-57
2024/01/11 12:30:36;;;;;;;;;;;;;;;;;;5093761;28;19913;-58
2024/01/11 12:33:02;;;;;;;;;;;;;;;;;;5094157;28;19969;-57
2024/01/11 12:35:28;;;;;;;;;;;;;;;;;;5094245;28;20263;-57
2024/01/11 12:37:54;;;;;;;;;;;;;;;;;;5092866;28;20337;-56
2024/01/11 12:40:20;;;;;;;;;;;;;;;;;;5092041;28;19912;-57
2024/01/11 12:42:49;;;;;;;;;;;;;;;;;;5093685;28;19958;-57
2024/01/11 12:45:15;;;;;;;;;;;;;;;;;;5093501;28;19999;-57
2024/01/11 12:47:40;;;;;;;;;;;;;;;;;;5093705;28;20011;-57
2024/01/11 12:50:07;;;;;;;;;;;;;;;;;;5092827;28;19919;-57
2024/01/11 12:52:33;;;;;;;;;;;;;;;;;;5092547;28;19969;-57
2024/01/11 12:54:59;;;;;;;;;;;;;;;;;;5093380;28;20322;-57
2024/01/11 12:57:26;;;;;;;;;;;;;;;;;;5093748;28;19908;-57
2024/01/11 12:59:52;;;;;;;;;;;;;;;;;;5093216;28;19912;-57
2024/01/11 13:02:19;;;;;;;;;;;;;;;;;;5089476;28;20387;-57
2024/01/11 13:04:48;;;;;;;;;;;;;;;;;;5092952;28;19920;-57
2024/01/11 13:07:15;;;;;;;;;;;;;;;;;;5091710;28;19952;-56
2024/01/11 13:09:41;;;;;;;;;;;;;;;;;;5090566;28;20398;-57
2024/01/11 13:12:07;;;;;;;;;;;;;;;;;;5092054;28;20003;-56
2024/01/11 13:14:33;;;;;;;;;;;;;;;;;;5085188;28;19922;-57
2024/01/11 13:16:59;;;;;;;;;;;;;;;;;;5085111;28;19912;-57
2024/01/11 13:19:25;;;;;;;;;;;;;;;;;;5087094;28;19915;-57
2024/01/11 13:21:52;;;;;;;;;;;;;;;;;;5088475;28;19988;-57
2024/01/11 13:24:18;;;;;;;;;;;;;;;;;;5088243;28;19916;-57
2024/01/11 13:26:44;;;;;;;;;;;;;;;;;;5091271;28;19916;-56
2024/01/11 13:29:11;;;;;;;;;;;;;;;;;;5090217;28;20415;-57
2024/01/11 13:31:37;;;;;;;;;;;;;;;;;;5092764;28;19982;-56
2024/01/11 13:34:03;;;;;;;;;;;;;;;;;;5086629;28;19920;-57
2024/01/11 13:36:29;;;;;;;;;;;;;;;;;;5082639;28;20348;-56
2024/01/11 13:38:55;;;;;;;;;;;;;;;;;;5086059;28;19951;-57
2024/01/11 13:41:21;;;;;;;;;;;;;;;;;;5090043;28;19912;-57
2024/01/11 13:43:47;;;;;;;;;;;;;;;;;;5090395;28;19912;-53
2024/01/11 13:46:16;;;;;;;;;;;;;;;;;;5089692;28;19931;-58
2024/01/11 13:48:42;;;;;;;;;;;;;;;;;;5091814;28;19943;-58
2024/01/11 13:51:12;;;;;;;;;;;;;;;;;;5083679;28;19916;-58
2024/01/11 13:53:38;;;;;;;;;;;;;;;;;;5076761;28;19912;-58
2024/01/11 13:56:04;;;;;;;;;;;;;;;;;;5083451;28;19994;-58
2024/01/11 13:58:31;;;;;;;;;;;;;;;;;;5092576;28;19918;-56
2024/01/11 14:00:57;;;;;;;;;;;;;;;;;;5091614;28;19916;-59
2024/01/11 14:03:23;;;;;;;;;;;;;;;;;;5086104;28;19970;-58
2024/01/11 14:05:49;;;;;;;;;;;;;;;;;;5086771;28;20045;-57
2024/01/11 14:08:15;;;;;;;;;;;;;;;;;;5091143;28;19924;-58
2024/01/11 14:10:41;;;;;;;;;;;;;;;;;;5090967;28;19943;-58
2024/01/11 14:13:07;;;;;;;;;;;;;;;;;;5090825;28;19908;-58
2024/01/11 14:15:33;;;;;;;;;;;;;;;;;;5081142;28;20346;-58
2024/01/11 14:17:59;;;;;;;;;;;;;;;;;;5090769;28;19955;-57
2024/01/11 14:20:24;;;;;;;;;;;;;;;;;;5090084;28;19912;-58
2024/01/11 14:22:50;;;;;;;;;;;;;;;;;;5090460;28;19912;-58
2024/01/11 14:25:16;;;;;;;;;;;;;;;;;;5090571;28;20003;-58
2024/01/11 14:27:44;;;;;;;;;;;;;;;;;;5091288;28;19962;-58
2024/01/11 14:30:10;;;;;;;;;;;;;;;;;;5091422;28;19973;-58
2024/01/11 14:32:36;;;;;;;;;;;;;;;;;;5091195;28;19948;-57
2024/01/11 14:35:04;;;;;;;;;;;;;;;;;;5091761;28;20010;-58
2024/01/11 14:37:30;;;;;;;;;;;;;;;;;;5089509;28;19912;-58
2024/01/11 14:39:55;;;;;;;;;;;;;;;;;;5090628;28;20395;-58
2024/01/11 14:42:22;;;;;;;;;;;;;;;;;;5088835;28;19970;-57
2024/01/11 14:44:47;;;;;;;;;;;;;;;;;;5083790;28;19966;-58
2024/01/11 14:47:15;;;;;;;;;;;;;;;;;;5090101;28;20386;-58
2024/01/11 14:49:41;;;;;;;;;;;;;;;;;;5086391;28;19919;-58
2024/01/11 14:52:07;;;;;;;;;;;;;;;;;;5096892;28;19912;-58
2024/01/11 14:54:33;;;;;;;;;;;;;;;;;;5091804;28;19982;-57
2024/01/11 14:56:59;;;;;;;;;;;;;;;;;;5092819;28;19912;-57
2024/01/11 14:59:25;;;;;;;;;;;;;;;;;;5097418;28;19916;-57
2024/01/11 15:01:51;;;;;;;;;;;;;;;;;;5088849;28;20356;-57
2024/01/11 15:04:17;;;;;;;;;;;;;;;;;;5098295;28;20002;-57
2024/01/11 15:06:43;;;;;;;;;;;;;;;;;;5096336;28;19962;-56
2024/01/11 15:09:12;;;;;;;;;;;;;;;;;;5096996;28;19959;-57
2024/01/11 15:11:38;;;;;;;;;;;;;;;;;;5096059;28;19995;-56
2024/01/11 15:14:05;;;;;;;;;;;;;;;;;;5097630;28;20447;-57
2024/01/11 15:16:31;;;;;;;;;;;;;;;;;;5098814;28;19999;-56
2024/01/11 15:18:56;;;;;;;;;;;;;;;;;;5098034;28;20003;-57
2024/01/11 15:21:22;;;;;;;;;;;;;;;;;;5085885;28;19920;-57
2024/01/11 15:23:48;;;;;;;;;;;;;;;;;;5096671;28;19948;-57
2024/01/11 15:26:14;;;;;;;;;;;;;;;;;;5097998;28;19947;-57
2024/01/11 15:28:40;;;;;;;;;;;;;;;;;;5097283;28;20372;-57
2024/01/11 15:31:06;;;;;;;;;;;;;;;;;;5091308;28;19964;-57
2024/01/11 15:33:32;;;;;;;;;;;;;;;;;;5088136;28;19919;-53
2024/01/11 15:35:58;;;;;;;;;;;;;;;;;;5095670;28;19959;-57
2024/01/11 15:38:24;;;;;;;;;;;;;;;;;;5097418;28;19999;-57
2024/01/11 15:40:49;;;;;;;;;;;;;;;;;;5096621;28;19922;-57
2024/01/11 15:43:30;;;;;;;;;;;;;;;;;;5087870;28;20003;-56
2024/01/11 15:45:56;;;;;;;;;;;;;;;;;;5069274;28;19948;-55
2024/01/11 15:48:22;;;;;;;;;;;;;;;;;;5069345;28;19954;-55
2024/01/11 15:50:48;;;;;;;;;;;;;;;;;;5071019;28;20362;-55
2024/01/11 15:53:14;;;;;;;;;;;;;;;;;;5077431;28;20003;-58
2024/01/11 15:55:40;;;;;;;;;;;;;;;;;;5070168;28;19974;-54
2024/01/11 15:58:06;;;;;;;;;;;;;;;;;;5069375;28;20424;-54
2024/01/11 16:00:32;;;;;;;;;;;;;;;;;;5071926;28;19921;-55
2024/01/11 16:02:58;;;;;;;;;;;;;;;;;;5075753;28;20344;-56
2024/01/11 16:05:23;;;;;;;;;;;;;;;;;;5057859;28;19913;-56
2024/01/11 16:07:49;;;;;;;;;;;;;;;;;;5058319;28;20012;-59
2024/01/11 16:10:15;;;;;;;;;;;;;;;;;;5061067;28;19932;-59
2024/01/11 16:12:41;;;;;;;;;;;;;;;;;;5053576;28;20022;-59
2024/01/11 16:15:07;;;;;;;;;;;;;;;;;;5070217;28;19912;-57
2024/01/11 16:17:33;;;;;;;;;;;;;;;;;;5058668;28;19912;-56
2024/01/11 16:19:59;;;;;;;;;;;;;;;;;;5064348;28;20292;-57
2024/01/11 16:22:25;;;;;;;;;;;;;;;;;;5057809;28;19971;-56
2024/01/11 16:24:51;;;;;;;;;;;;;;;;;;5066304;28;19917;-56
2024/01/11 16:27:18;;;;;;;;;;;;;;;;;;5059958;28;19960;-57
2024/01/11 16:29:44;;;;;;;;;;;;;;;;;;5062568;28;19917;-56
2024/01/11 16:32:10;;;;;;;;;;;;;;;;;;5067692;28;19978;-57
2024/01/11 16:34:36;;;;;;;;;;;;;;;;;;5067969;28;19920;-56
2024/01/11 16:37:02;;;;;;;;;;;;;;;;;;5059212;28;20011;-56